Time;durP1;ratioP1;P1;durP2;ratioP2;P2;SDS_P1;SDS_P2;PMS_P1;PMS_P2;Temp;Humidity;BMP_temperature;BMP_pressure;BME280_temperature;BME280_humidity;BME280_pressure;Samples;Min_cycle;Max_cycle;Signal;HPM_P1;HPM_P2
2021/07/23 00:00:03;;;;;;;17.17;15.50;;;;;;;;;;5032803;28;24411;-53
2021/07/23 00:02:28;;;;;;;18.73;17.10;;;;;;;;;;5025612;28;24581;-53
2021/07/23 00:04:53;;;;;;;15.77;14.47;;;;;;;;;;5014811;28;24515;-53
2021/07/23 00:07:18;;;;;;;14.80;13.50;;;;;;;;;;5024495;28;24416;-53
2021/07/23 00:09:43;;;;;;;17.27;15.67;;;;;;;;;;5032021;28;24419;-53
2021/07/23 00:12:09;;;;;;;16.80;15.40;;;;;;;;;;5037013;28;24423;-52
2021/07/23 00:14:34;;;;;;;17.40;15.80;;;;;;;;;;5025832;28;24411;-54
2021/07/23 00:16:59;;;;;;;16.77;15.27;;;;;;;;;;5037517;28;24507;-54
2021/07/23 00:19:24;;;;;;;16.02;14.63;;;;;;;;;;5038923;28;24415;-54
2021/07/23 00:21:49;;;;;;;15.32;13.93;;;;;;;;;;5038628;28;24432;-54
2021/07/23 00:24:15;;;;;;;16.97;15.50;;;;;;;;;;5024600;28;24849;-54
2021/07/23 00:26:40;;;;;;;17.20;15.70;;;;;;;;;;5033572;28;25313;-54
2021/07/23 00:29:05;;;;;;;16.20;14.70;;;;;;;;;;5018321;28;24447;-54
2021/07/23 00:31:30;;;;;;;16.40;14.90;;;;;;;;;;5030503;28;24388;-52
2021/07/23 00:33:55;;;;;;;16.70;15.30;;;;;;;;;;5031139;28;24535;-53
2021/07/23 00:36:21;;;;;;;18.83;17.03;;;;;;;;;;5042883;28;24408;-53
2021/07/23 00:38:47;;;;;;;18.20;16.60;;;;;;;;;;5039632;28;24972;-53
2021/07/23 00:41:12;;;;;;;15.93;14.52;;;;;;;;;;5045852;28;24912;-53
2021/07/23 00:43:37;;;;;;;15.63;14.33;;;;;;;;;;5034684;28;24577;-53
2021/07/23 00:46:02;;;;;;;14.73;13.43;;;;;;;;;;5030622;28;24407;-53
2021/07/23 00:48:28;;;;;;;16.02;14.65;;;;;;;;;;5015983;28;24993;-53
2021/07/23 00:50:53;;;;;;;16.58;15.07;;;;;;;;;;5033555;28;24496;-53
2021/07/23 00:53:19;;;;;;;16.30;14.80;;;;;;;;;;5036211;28;24766;-54
2021/07/23 00:55:49;;;;;;;15.32;14.07;;;;;;;;;;5033706;28;24473;-54
2021/07/23 00:58:14;;;;;;;18.17;16.48;;;;;;;;;;5021341;28;24419;-54
2021/07/23 01:00:40;;;;;;;15.90;14.50;;;;;;;;;;5026798;28;24478;-54
2021/07/23 01:03:05;;;;;;;18.50;16.80;;;;;;;;;;5037540;28;24523;-54
2021/07/23 01:05:30;;;;;;;15.90;14.50;;;;;;;;;;5024277;28;24490;-54
2021/07/23 01:07:55;;;;;;;16.80;15.40;;;;;;;;;;5022841;28;24503;-54
2021/07/23 01:10:21;;;;;;;16.10;14.40;;;;;;;;;;5029108;28;24384;-54
2021/07/23 01:12:46;;;;;;;15.57;14.17;;;;;;;;;;5033651;28;24424;-54
2021/07/23 01:15:11;;;;;;;17.02;15.45;;;;;;;;;;5048796;28;25009;-54
2021/07/23 01:17:37;;;;;;;17.10;15.55;;;;;;;;;;5032943;28;24478;-54
2021/07/23 01:20:09;;;;;;;15.80;14.50;;;;;;;;;;5030360;28;24775;-54
2021/07/23 01:22:37;;;;;;;15.40;14.10;;;;;;;;;;5031367;28;24435;-54
2021/07/23 01:25:03;;;;;;;16.60;15.20;;;;;;;;;;5030552;28;24829;-53
2021/07/23 01:27:28;;;;;;;16.73;15.23;;;;;;;;;;5025665;28;24985;-53
2021/07/23 01:30:00;;;;;;;17.33;15.80;;;;;;;;;;5030703;28;24836;-53
2021/07/23 01:32:25;;;;;;;17.30;15.80;;;;;;;;;;5027194;28;24446;-53
2021/07/23 01:34:50;;;;;;;16.77;15.18;;;;;;;;;;5028611;28;24981;-53
2021/07/23 01:37:16;;;;;;;15.77;14.43;;;;;;;;;;5032504;28;24411;-54
2021/07/23 01:39:41;;;;;;;15.82;14.43;;;;;;;;;;5037116;28;24419;-53
2021/07/23 01:42:06;;;;;;;15.90;14.50;;;;;;;;;;5035045;28;24578;-52
2021/07/23 01:44:31;;;;;;;16.90;15.40;;;;;;;;;;5035600;28;24412;-53
2021/07/23 01:46:56;;;;;;;16.65;15.15;;;;;;;;;;5028025;28;24443;-53
2021/07/23 01:49:22;;;;;;;17.50;16.00;;;;;;;;;;5032007;28;24508;-52
2021/07/23 01:51:47;;;;;;;15.90;14.50;;;;;;;;;;5048142;28;24406;-52
2021/07/23 01:54:12;;;;;;;17.60;16.00;;;;;;;;;;5034300;28;25039;-54
2021/07/23 01:56:37;;;;;;;15.95;14.65;;;;;;;;;;5008592;28;24450;-55
2021/07/23 01:59:02;;;;;;;14.55;13.25;;;;;;;;;;5023298;28;24412;-54
2021/07/23 02:01:27;;;;;;;15.40;14.10;;;;;;;;;;5028128;28;24961;-54
2021/07/23 02:03:53;;;;;;;15.50;14.10;;;;;;;;;;5038047;28;24412;-54
2021/07/23 02:06:18;;;;;;;15.50;14.15;;;;;;;;;;5042621;28;24418;-54
2021/07/23 02:08:43;;;;;;;15.73;14.43;;;;;;;;;;5035920;28;24952;-54
2021/07/23 02:11:08;;;;;;;15.50;14.20;;;;;;;;;;5031549;28;24498;-55
2021/07/23 02:13:33;;;;;;;15.70;14.30;;;;;;;;;;5026922;28;24416;-54
2021/07/23 02:16:02;;;;;;;16.60;15.10;;;;;;;;;;5046323;28;24972;-54
2021/07/23 02:18:27;;;;;;;16.10;14.60;;;;;;;;;;5030628;28;24429;-52
2021/07/23 02:20:52;;;;;;;15.93;14.52;;;;;;;;;;5046099;28;24518;-52
2021/07/23 02:23:17;;;;;;;16.35;14.90;;;;;;;;;;5030263;28;24471;-53
2021/07/23 02:25:42;;;;;;;16.65;15.15;;;;;;;;;;5008237;28;24408;-54
2021/07/23 02:28:07;;;;;;;16.50;15.10;;;;;;;;;;5027117;28;24502;-52
2021/07/23 02:30:33;;;;;;;15.90;14.50;;;;;;;;;;5030896;28;24476;-53
2021/07/23 02:32:58;;;;;;;15.83;14.43;;;;;;;;;;5015039;28;24461;-53
2021/07/23 02:35:23;;;;;;;16.35;14.85;;;;;;;;;;5023318;28;24426;-53
2021/07/23 02:37:48;;;;;;;16.20;14.70;;;;;;;;;;5045169;28;24411;-53
2021/07/23 02:40:13;;;;;;;15.10;13.80;;;;;;;;;;5032790;28;24494;-53
2021/07/23 02:42:39;;;;;;;16.63;15.03;;;;;;;;;;5031696;28;24836;-53
2021/07/23 02:45:04;;;;;;;16.17;14.77;;;;;;;;;;5017070;28;24798;-53
2021/07/23 02:47:29;;;;;;;15.20;13.90;;;;;;;;;;5013340;28;24462;-54
2021/07/23 02:49:54;;;;;;;17.48;15.88;;;;;;;;;;5030513;28;24423;-53
2021/07/23 02:52:19;;;;;;;15.70;14.30;;;;;;;;;;5032246;28;24544;-53
2021/07/23 02:54:45;;;;;;;16.90;15.48;;;;;;;;;;5030002;28;24411;-54
2021/07/23 02:57:10;;;;;;;17.20;15.70;;;;;;;;;;5026126;28;24424;-54
2021/07/23 02:59:35;;;;;;;16.15;14.75;;;;;;;;;;5029764;28;24415;-54
2021/07/23 03:02:00;;;;;;;16.30;14.90;;;;;;;;;;5028611;28;24494;-53
2021/07/23 03:04:25;;;;;;;17.33;15.73;;;;;;;;;;5026768;28;24408;-53
2021/07/23 03:06:51;;;;;;;15.50;14.20;;;;;;;;;;5030851;28;24415;-53
2021/07/23 03:09:16;;;;;;;15.88;14.48;;;;;;;;;;5033343;28;24474;-53
2021/07/23 03:11:41;;;;;;;16.00;14.60;;;;;;;;;;5036632;28;24435;-53
2021/07/23 03:14:07;;;;;;;15.48;14.07;;;;;;;;;;5044142;28;25008;-53
2021/07/23 03:16:32;;;;;;;17.20;15.60;;;;;;;;;;5036046;28;24988;-53
2021/07/23 03:18:57;;;;;;;16.02;14.63;;;;;;;;;;5036388;28;24474;-53
2021/07/23 03:21:22;;;;;;;16.95;15.35;;;;;;;;;;5019646;28;24418;-53
2021/07/23 03:23:47;;;;;;;16.27;14.77;;;;;;;;;;5028380;28;25017;-53
2021/07/23 03:26:12;;;;;;;17.00;15.40;;;;;;;;;;5023991;28;24444;-53
2021/07/23 03:28:38;;;;;;;16.70;15.20;;;;;;;;;;5006975;28;24392;-53
2021/07/23 03:31:03;;;;;;;15.90;14.40;;;;;;;;;;5029959;28;24758;-53
2021/07/23 03:33:28;;;;;;;15.45;14.05;;;;;;;;;;5017542;28;24490;-53
2021/07/23 03:35:53;;;;;;;15.47;14.13;;;;;;;;;;5019560;28;24427;-53
2021/07/23 03:38:18;;;;;;;14.47;13.27;;;;;;;;;;5020175;28;26055;-54
2021/07/23 03:40:44;;;;;;;16.00;14.60;;;;;;;;;;5029798;28;24423;-54
2021/07/23 03:43:09;;;;;;;15.93;14.43;;;;;;;;;;5025553;28;25024;-54
2021/07/23 03:45:34;;;;;;;16.20;14.80;;;;;;;;;;5020911;28;24424;-54
2021/07/23 03:48:00;;;;;;;15.60;14.30;;;;;;;;;;5007855;28;24514;-54
2021/07/23 03:50:25;;;;;;;15.52;13.93;;;;;;;;;;5019389;28;24463;-54
2021/07/23 03:52:50;;;;;;;15.20;13.90;;;;;;;;;;5034913;28;24419;-54
2021/07/23 03:55:16;;;;;;;17.45;15.95;;;;;;;;;;5018051;28;24423;-53
2021/07/23 03:57:41;;;;;;;15.65;14.35;;;;;;;;;;5029939;28;24424;-54
2021/07/23 04:00:07;;;;;;;14.60;13.30;;;;;;;;;;5026508;28;24587;-54
2021/07/23 04:02:32;;;;;;;14.77;13.48;;;;;;;;;;5019157;28;24585;-54
2021/07/23 04:04:57;;;;;;;16.60;15.20;;;;;;;;;;5026410;28;24852;-54
2021/07/23 04:07:22;;;;;;;15.60;14.30;;;;;;;;;;5030592;28;24465;-54
2021/07/23 04:09:48;;;;;;;15.90;14.50;;;;;;;;;;5030177;28;25029;-54
2021/07/23 04:12:13;;;;;;;16.00;14.60;;;;;;;;;;5031647;28;24490;-54
2021/07/23 04:14:38;;;;;;;15.35;14.05;;;;;;;;;;5029579;28;25020;-54
2021/07/23 04:17:04;;;;;;;16.23;14.73;;;;;;;;;;5049573;28;24398;-54
2021/07/23 04:19:29;;;;;;;14.73;13.43;;;;;;;;;;5031372;28;24474;-54
2021/07/23 04:21:54;;;;;;;16.67;15.10;;;;;;;;;;5036260;28;24852;-54
2021/07/23 04:24:19;;;;;;;15.53;14.20;;;;;;;;;;5026696;28;24419;-54
2021/07/23 04:26:46;;;;;;;14.48;13.27;;;;;;;;;;5028393;28;24442;-54
2021/07/23 04:29:11;;;;;;;15.37;13.90;;;;;;;;;;5026284;28;24487;-54
2021/07/23 04:31:36;;;;;;;14.23;13.02;;;;;;;;;;5016732;28;25310;-54
2021/07/23 04:34:01;;;;;;;15.20;13.90;;;;;;;;;;5025750;28;24415;-54
2021/07/23 04:36:27;;;;;;;15.10;13.80;;;;;;;;;;5013235;28;24428;-54
2021/07/23 04:38:52;;;;;;;14.95;13.55;;;;;;;;;;5025536;28;24949;-54
2021/07/23 04:41:17;;;;;;;14.10;12.80;;;;;;;;;;5032179;28;24415;-54
2021/07/23 04:43:42;;;;;;;14.50;13.30;;;;;;;;;;5042953;28;24947;-54
2021/07/23 04:46:08;;;;;;;14.20;13.00;;;;;;;;;;5029357;28;24408;-54
2021/07/23 04:48:33;;;;;;;15.02;13.73;;;;;;;;;;5028226;28;24479;-54
2021/07/23 04:51:02;;;;;;;15.73;14.33;;;;;;;;;;5032102;28;24462;-53
2021/07/23 04:53:27;;;;;;;16.60;15.20;;;;;;;;;;5044790;28;24463;-54
2021/07/23 04:55:54;;;;;;;14.63;13.43;;;;;;;;;;5044011;28;25049;-54
2021/07/23 04:58:19;;;;;;;15.27;13.98;;;;;;;;;;5039896;28;25036;-54
2021/07/23 05:00:45;;;;;;;16.43;15.03;;;;;;;;;;5028019;28;24550;-54
2021/07/23 05:03:10;;;;;;;15.00;13.70;;;;;;;;;;5037269;28;24431;-54
2021/07/23 05:05:35;;;;;;;16.40;15.00;;;;;;;;;;5035946;28;24426;-53
2021/07/23 05:08:00;;;;;;;14.97;13.67;;;;;;;;;;5034619;28;24767;-54
2021/07/23 05:10:26;;;;;;;15.73;14.43;;;;;;;;;;5028478;28;24558;-54
2021/07/23 05:12:51;;;;;;;14.67;13.40;;;;;;;;;;5025315;28;24766;-54
2021/07/23 05:15:16;;;;;;;16.50;15.10;;;;;;;;;;5026853;28;24458;-54
2021/07/23 05:17:41;;;;;;;15.13;13.83;;;;;;;;;;5034208;28;24964;-54
2021/07/23 05:20:07;;;;;;;16.20;14.70;;;;;;;;;;5024224;28;24458;-54
2021/07/23 05:22:33;;;;;;;14.40;13.20;;;;;;;;;;5037475;28;24464;-54
2021/07/23 05:24:58;;;;;;;15.27;13.98;;;;;;;;;;5038937;28;24415;-54
2021/07/23 05:27:24;;;;;;;16.30;14.90;;;;;;;;;;5049420;28;24406;-54
2021/07/23 05:29:49;;;;;;;14.20;13.00;;;;;;;;;;5041949;28;24754;-54
2021/07/23 05:32:14;;;;;;;15.77;14.37;;;;;;;;;;5028006;28;24407;-54
2021/07/23 05:34:39;;;;;;;14.40;13.20;;;;;;;;;;5028181;28;24392;-54
2021/07/23 05:37:04;;;;;;;15.15;13.85;;;;;;;;;;5028815;28;24738;-54
2021/07/23 05:39:30;;;;;;;14.47;13.17;;;;;;;;;;5027843;28;24471;-54
2021/07/23 05:41:55;;;;;;;16.00;14.60;;;;;;;;;;5027593;28;24429;-54
2021/07/23 05:44:20;;;;;;;16.75;15.15;;;;;;;;;;5028775;28;24816;-54
2021/07/23 05:46:45;;;;;;;14.70;13.50;;;;;;;;;;5028446;28;25003;-54
2021/07/23 05:49:10;;;;;;;15.55;14.05;;;;;;;;;;5027913;28;24720;-54
2021/07/23 05:51:35;;;;;;;15.18;13.93;;;;;;;;;;5026787;28;24423;-54
2021/07/23 05:54:00;;;;;;;14.85;13.45;;;;;;;;;;5027956;28;24758;-54
2021/07/23 05:56:26;;;;;;;14.65;13.45;;;;;;;;;;5027300;28;24451;-54
2021/07/23 05:58:51;;;;;;;16.97;15.47;;;;;;;;;;5028348;28;24400;-55
2021/07/23 06:01:16;;;;;;;16.70;15.20;;;;;;;;;;5026757;28;24419;-54
2021/07/23 06:03:41;;;;;;;14.13;13.00;;;;;;;;;;5031801;28;24459;-54
2021/07/23 06:06:06;;;;;;;15.63;14.23;;;;;;;;;;5024046;28;24436;-54
2021/07/23 06:08:32;;;;;;;15.57;14.27;;;;;;;;;;5019138;28;25314;-54
2021/07/23 06:11:03;;;;;;;14.52;13.23;;;;;;;;;;5022655;28;24820;-54
2021/07/23 06:13:28;;;;;;;14.53;13.23;;;;;;;;;;5033556;28;24485;-54
2021/07/23 06:15:53;;;;;;;14.65;13.25;;;;;;;;;;5036044;28;24489;-54
2021/07/23 06:18:18;;;;;;;15.20;13.90;;;;;;;;;;5035448;28;24972;-55
2021/07/23 06:20:43;;;;;;;16.30;14.83;;;;;;;;;;5024241;28;24416;-55
2021/07/23 06:23:08;;;;;;;15.05;13.75;;;;;;;;;;5016712;28;24432;-54
2021/07/23 06:25:34;;;;;;;14.10;12.90;;;;;;;;;;5027924;28;24813;-55
2021/07/23 06:27:59;;;;;;;14.98;13.63;;;;;;;;;;5028624;28;25133;-55
2021/07/23 06:30:24;;;;;;;15.35;13.95;;;;;;;;;;5024465;28;24953;-55
2021/07/23 06:32:49;;;;;;;15.75;14.38;;;;;;;;;;5023152;28;24526;-55
2021/07/23 06:35:14;;;;;;;15.35;14.15;;;;;;;;;;5022889;28;24508;-55
2021/07/23 06:37:39;;;;;;;17.00;15.60;;;;;;;;;;5041039;28;25025;-55
2021/07/23 06:40:05;;;;;;;15.40;14.20;;;;;;;;;;5039739;28;24459;-55
2021/07/23 06:42:30;;;;;;;16.20;14.80;;;;;;;;;;5028810;28;24439;-55
2021/07/23 06:44:55;;;;;;;16.70;15.20;;;;;;;;;;5033400;28;24501;-55
2021/07/23 06:47:20;;;;;;;17.17;15.67;;;;;;;;;;5032737;28;24532;-55
2021/07/23 06:49:47;;;;;;;15.70;14.30;;;;;;;;;;5016361;28;24452;-55
2021/07/23 06:52:13;;;;;;;15.65;14.30;;;;;;;;;;5031821;28;24839;-55
2021/07/23 06:54:38;;;;;;;16.57;15.07;;;;;;;;;;5030519;28;25028;-55
2021/07/23 06:57:04;;;;;;;16.23;14.73;;;;;;;;;;5035636;28;24422;-55
2021/07/23 06:59:33;;;;;;;15.87;14.47;;;;;;;;;;5035967;28;24544;-55
2021/07/23 07:01:59;;;;;;;17.10;15.50;;;;;;;;;;5032655;28;24848;-55
2021/07/23 07:04:24;;;;;;;14.93;13.63;;;;;;;;;;5028154;28;24467;-55
2021/07/23 07:06:49;;;;;;;15.90;14.50;;;;;;;;;;5023146;28;24763;-55
2021/07/23 07:09:14;;;;;;;16.40;15.00;;;;;;;;;;5026214;28;24447;-55
2021/07/23 07:11:39;;;;;;;14.23;13.13;;;;;;;;;;5026122;28;24465;-55
2021/07/23 07:14:05;;;;;;;14.77;13.57;;;;;;;;;;5042964;28;24807;-55
2021/07/23 07:16:30;;;;;;;15.30;13.90;;;;;;;;;;5028294;28;24447;-55
2021/07/23 07:18:55;;;;;;;14.17;13.07;;;;;;;;;;5025971;28;24384;-55
2021/07/23 07:21:20;;;;;;;15.20;13.90;;;;;;;;;;5026957;28;24865;-55
2021/07/23 07:23:45;;;;;;;15.97;14.57;;;;;;;;;;5026453;28;24438;-55
2021/07/23 07:26:11;;;;;;;16.90;15.50;;;;;;;;;;5023753;28;24481;-56
2021/07/23 07:28:36;;;;;;;15.80;14.50;;;;;;;;;;5025963;28;24462;-55
2021/07/23 07:31:01;;;;;;;13.65;12.55;;;;;;;;;;5028706;28;24446;-55
2021/07/23 07:33:28;;;;;;;15.75;14.40;;;;;;;;;;5030218;28;24809;-55
2021/07/23 07:35:53;;;;;;;15.05;13.75;;;;;;;;;;5029663;28;24416;-55
2021/07/23 07:38:18;;;;;;;14.50;13.30;;;;;;;;;;5031216;28;25283;-55
2021/07/23 07:40:43;;;;;;;15.93;14.53;;;;;;;;;;5030965;28;24497;-55
2021/07/23 07:43:08;;;;;;;14.65;13.45;;;;;;;;;;5029821;28;24762;-55
2021/07/23 07:45:36;;;;;;;15.67;14.37;;;;;;;;;;5030158;28;24864;-55
2021/07/23 07:48:01;;;;;;;15.20;13.90;;;;;;;;;;5028523;28;24439;-55
2021/07/23 07:50:26;;;;;;;14.80;13.60;;;;;;;;;;5014974;28;24487;-55
2021/07/23 07:52:51;;;;;;;15.07;13.87;;;;;;;;;;5010109;28;24957;-55
2021/07/23 07:55:17;;;;;;;14.30;13.10;;;;;;;;;;5010766;28;24420;-55
2021/07/23 07:57:42;;;;;;;15.90;14.60;;;;;;;;;;5010903;28;25021;-56
2021/07/23 08:00:08;;;;;;;13.97;12.87;;;;;;;;;;5010217;28;24389;-56
2021/07/23 08:02:33;;;;;;;15.10;13.90;;;;;;;;;;5010502;28;24447;-55
2021/07/23 08:04:58;;;;;;;14.03;12.93;;;;;;;;;;5010051;28;24491;-55
2021/07/23 08:07:29;;;;;;;14.63;13.43;;;;;;;;;;5027503;28;24499;-55
2021/07/23 08:09:58;;;;;;;12.85;11.82;;;;;;;;;;5030009;28;24388;-56
2021/07/23 08:12:24;;;;;;;14.70;13.50;;;;;;;;;;5029664;28;24919;-55
2021/07/23 08:14:49;;;;;;;14.70;13.40;;;;;;;;;;5029423;28;24765;-56
2021/07/23 08:17:14;;;;;;;13.63;12.52;;;;;;;;;;5028109;28;25237;-56
2021/07/23 08:19:40;;;;;;;14.93;13.73;;;;;;;;;;5030598;28;24458;-55
2021/07/23 08:22:06;;;;;;;14.47;13.20;;;;;;;;;;5029819;28;24554;-55
2021/07/23 08:24:31;;;;;;;14.40;13.10;;;;;;;;;;5029786;28;24423;-55
2021/07/23 08:26:56;;;;;;;13.80;12.73;;;;;;;;;;5028042;28;24494;-55
2021/07/23 08:29:21;;;;;;;14.17;13.07;;;;;;;;;;5030286;28;24404;-55
2021/07/23 08:31:47;;;;;;;14.05;12.85;;;;;;;;;;5029218;28;24387;-56
2021/07/23 08:34:12;;;;;;;14.40;13.20;;;;;;;;;;5028735;28;24414;-56
2021/07/23 08:36:37;;;;;;;13.82;12.57;;;;;;;;;;5029799;28;24403;-56
2021/07/23 08:39:02;;;;;;;13.20;12.20;;;;;;;;;;5029100;28;24419;-55
2021/07/23 08:41:27;;;;;;;13.55;12.45;;;;;;;;;;5029279;28;24968;-56
2021/07/23 08:43:52;;;;;;;12.70;11.70;;;;;;;;;;5028799;28;24423;-56
2021/07/23 08:46:17;;;;;;;14.47;13.27;;;;;;;;;;5028863;28;24415;-56
2021/07/23 08:48:43;;;;;;;13.15;12.13;;;;;;;;;;5028043;28;24443;-56
2021/07/23 08:51:08;;;;;;;12.83;11.73;;;;;;;;;;5029411;28;24976;-56
2021/07/23 08:53:33;;;;;;;13.60;12.60;;;;;;;;;;5029378;28;24634;-55
2021/07/23 08:55:58;;;;;;;13.60;12.50;;;;;;;;;;5028491;28;24491;-56
2021/07/23 08:58:24;;;;;;;13.07;12.07;;;;;;;;;;5027851;28;24460;-55
2021/07/23 09:00:55;;;;;;;13.37;12.37;;;;;;;;;;5029093;28;24403;-56
2021/07/23 09:03:25;;;;;;;14.60;13.40;;;;;;;;;;5029233;28;24494;-56
2021/07/23 09:05:50;;;;;;;21.70;19.77;;;;;;;;;;5024209;28;24424;-56
2021/07/23 09:08:16;;;;;;;13.63;12.60;;;;;;;;;;5028213;28;24415;-56
2021/07/23 09:10:42;;;;;;;14.00;12.90;;;;;;;;;;5019837;28;24415;-56
2021/07/23 09:13:07;;;;;;;14.07;12.98;;;;;;;;;;5021767;28;24785;-56
2021/07/23 09:15:40;;;;;;;13.67;12.60;;;;;;;;;;5028577;28;24737;-57
2021/07/23 09:18:07;;;;;;;14.00;12.80;;;;;;;;;;5028299;28;24432;-56
2021/07/23 09:20:33;;;;;;;15.50;14.30;;;;;;;;;;5028613;28;24523;-56
2021/07/23 09:22:59;;;;;;;15.50;14.30;;;;;;;;;;5028296;28;25024;-56
2021/07/23 09:25:37;;;;;;;13.80;12.80;;;;;;;;;;5028117;28;24511;-56
2021/07/23 09:28:17;;;;;;;13.43;12.43;;;;;;;;;;5029300;28;24404;-56
2021/07/23 09:30:43;;;;;;;14.45;13.35;;;;;;;;;;5028648;28;25176;-56
2021/07/23 09:33:08;;;;;;;14.13;13.03;;;;;;;;;;5028541;28;24426;-56
2021/07/23 09:35:33;;;;;;;13.20;12.10;;;;;;;;;;5028280;28;24400;-56
2021/07/23 09:37:59;;;;;;;13.40;12.30;;;;;;;;;;5015222;28;24455;-56
2021/07/23 09:40:25;;;;;;;14.77;13.47;;;;;;;;;;5007080;28;24750;-56
2021/07/23 09:42:57;;;;;;;13.93;12.80;;;;;;;;;;5022005;28;24450;-56
2021/07/23 09:45:29;;;;;;;12.50;11.50;;;;;;;;;;5027352;28;24422;-55
2021/07/23 09:48:09;;;;;;;13.23;12.13;;;;;;;;;;5027902;28;24423;-55
2021/07/23 09:50:46;;;;;;;14.27;13.07;;;;;;;;;;5028348;28;24388;-55
2021/07/23 09:53:12;;;;;;;12.82;11.73;;;;;;;;;;5026283;28;24960;-55
2021/07/23 09:55:38;;;;;;;12.15;11.25;;;;;;;;;;5027423;28;24963;-55
2021/07/23 09:58:04;;;;;;;12.10;11.20;;;;;;;;;;5027806;28;24430;-55
2021/07/23 10:00:30;;;;;;;12.50;11.50;;;;;;;;;;5027154;28;24426;-55
2021/07/23 10:02:56;;;;;;;9.85;9.10;;;;;;;;;;5026462;28;24526;-55
2021/07/23 10:05:23;;;;;;;11.33;10.43;;;;;;;;;;5027012;28;24862;-54
2021/07/23 10:07:52;;;;;;;11.65;10.75;;;;;;;;;;5026889;28;24380;-55
2021/07/23 10:10:18;;;;;;;13.43;12.32;;;;;;;;;;5026902;28;24390;-55
2021/07/23 10:12:45;;;;;;;13.47;12.33;;;;;;;;;;5027186;28;24392;-55
2021/07/23 10:15:12;;;;;;;14.43;13.32;;;;;;;;;;5025837;28;24552;-55
2021/07/23 10:17:37;;;;;;;14.68;13.38;;;;;;;;;;5025385;28;24545;-55
2021/07/23 10:20:03;;;;;;;13.40;12.33;;;;;;;;;;5024914;28;24579;-55
2021/07/23 10:22:28;;;;;;;13.88;12.57;;;;;;;;;;5027728;28;24396;-56
2021/07/23 10:24:54;;;;;;;12.87;11.87;;;;;;;;;;5026573;28;24416;-55
2021/07/23 10:27:22;;;;;;;12.68;11.68;;;;;;;;;;5026749;28;24396;-56
2021/07/23 10:29:54;;;;;;;13.77;12.77;;;;;;;;;;5027566;28;24486;-56
2021/07/23 10:32:32;;;;;;;12.95;11.95;;;;;;;;;;5027540;28;24419;-55
2021/07/23 10:34:58;;;;;;;12.40;11.50;;;;;;;;;;5026094;28;24423;-56
2021/07/23 10:37:26;;;;;;;12.33;11.43;;;;;;;;;;5027215;28;24434;-56
2021/07/23 10:40:10;;;;;;;13.48;12.27;;;;;;;;;;5027914;28;24498;-56
2021/07/23 10:42:39;;;;;;;13.10;12.00;;;;;;;;;;5027314;28;24430;-55
2021/07/23 10:45:05;;;;;;;13.77;12.68;;;;;;;;;;5025049;28;24440;-56
2021/07/23 10:47:34;;;;;;;13.00;11.90;;;;;;;;;;5026762;28;24517;-56
2021/07/23 10:49:59;;;;;;;13.48;12.48;;;;;;;;;;5027341;28;24475;-56
2021/07/23 10:52:25;;;;;;;14.50;13.20;;;;;;;;;;5027575;28;24834;-56
2021/07/23 10:55:09;;;;;;;15.03;13.63;;;;;;;;;;5016693;28;24455;-56
2021/07/23 10:57:35;;;;;;;12.80;11.80;;;;;;;;;;5007757;28;24485;-56
2021/07/23 11:00:00;;;;;;;14.03;13.03;;;;;;;;;;5007632;28;24499;-55
2021/07/23 11:02:31;;;;;;;14.50;13.40;;;;;;;;;;5007490;28;24402;-55
2021/07/23 11:05:11;;;;;;;13.80;12.80;;;;;;;;;;5015431;28;25047;-56
2021/07/23 11:07:37;;;;;;;14.23;13.13;;;;;;;;;;5027498;28;24979;-56
2021/07/23 11:10:03;;;;;;;14.20;13.10;;;;;;;;;;5026474;28;24397;-56
2021/07/23 11:12:32;;;;;;;12.68;11.75;;;;;;;;;;5026200;28;24465;-56
2021/07/23 11:14:58;;;;;;;12.63;11.73;;;;;;;;;;5025178;28;24512;-56
2021/07/23 11:17:24;;;;;;;14.20;13.10;;;;;;;;;;5026698;28;24522;-56
2021/07/23 11:19:51;;;;;;;12.63;11.63;;;;;;;;;;5026533;28;24415;-56
2021/07/23 11:22:23;;;;;;;13.43;12.43;;;;;;;;;;5027262;28;24419;-56
2021/07/23 11:24:48;;;;;;;14.67;13.50;;;;;;;;;;5027000;28;24419;-55
2021/07/23 11:27:22;;;;;;;14.38;13.18;;;;;;;;;;5026024;28;24404;-56
2021/07/23 11:29:47;;;;;;;13.20;12.20;;;;;;;;;;5026079;28;24515;-56
2021/07/23 11:32:14;;;;;;;13.60;12.50;;;;;;;;;;5026892;28;24484;-56
2021/07/23 11:34:41;;;;;;;13.65;12.55;;;;;;;;;;5027590;28;24980;-56
2021/07/23 11:37:13;;;;;;;14.20;13.10;;;;;;;;;;5025179;28;24412;-56
2021/07/23 11:39:51;;;;;;;13.10;12.10;;;;;;;;;;5026629;28;24955;-56
2021/07/23 11:42:16;;;;;;;12.80;11.80;;;;;;;;;;5026868;28;24420;-56
2021/07/23 11:44:52;;;;;;;13.00;12.10;;;;;;;;;;5026351;28;24402;-56
2021/07/23 11:47:35;;;;;;;12.52;11.52;;;;;;;;;;5024438;28;24507;-56
2021/07/23 11:50:03;;;;;;;14.13;13.02;;;;;;;;;;5027193;28;24404;-56
2021/07/23 11:52:28;;;;;;;14.02;12.93;;;;;;;;;;5026688;28;24511;-56
2021/07/23 11:54:57;;;;;;;13.20;12.20;;;;;;;;;;5026688;28;24511;-56
2021/07/23 11:57:22;;;;;;;14.35;13.25;;;;;;;;;;5024895;28;24467;-56
2021/07/23 11:59:47;;;;;;;15.30;14.10;;;;;;;;;;5026863;28;25139;-56
2021/07/23 12:02:14;;;;;;;14.65;13.45;;;;;;;;;;5026912;28;24837;-56
2021/07/23 12:04:41;;;;;;;12.18;11.27;;;;;;;;;;5026782;28;24376;-56
2021/07/23 12:07:06;;;;;;;15.10;13.90;;;;;;;;;;5026153;28;24392;-56
2021/07/23 12:09:32;;;;;;;14.18;13.07;;;;;;;;;;5025455;28;24968;-56
2021/07/23 12:11:57;;;;;;;14.00;12.90;;;;;;;;;;5026859;28;24503;-56
2021/07/23 12:14:23;;;;;;;14.27;13.07;;;;;;;;;;5026721;28;24419;-56
2021/07/23 12:16:51;;;;;;;13.70;12.60;;;;;;;;;;5026378;28;24408;-55
2021/07/23 12:19:17;;;;;;;13.10;12.10;;;;;;;;;;5026784;28;24427;-56
2021/07/23 12:21:42;;;;;;;13.63;12.63;;;;;;;;;;5027741;28;24400;-56
2021/07/23 12:24:08;;;;;;;12.30;11.40;;;;;;;;;;5027654;28;24396;-57
2021/07/23 12:26:34;;;;;;;14.20;13.10;;;;;;;;;;5010091;28;24431;-56
2021/07/23 12:29:00;;;;;;;13.43;12.43;;;;;;;;;;5015057;28;24416;-56
2021/07/23 12:31:25;;;;;;;12.70;11.80;;;;;;;;;;5016678;28;24427;-56
2021/07/23 12:34:04;;;;;;;12.40;11.40;;;;;;;;;;5020408;28;24987;-56
2021/07/23 12:36:29;;;;;;;12.93;11.93;;;;;;;;;;5025792;28;24420;-56
2021/07/23 12:39:01;;;;;;;12.43;11.43;;;;;;;;;;5023622;28;24411;-56
2021/07/23 12:41:26;;;;;;;13.27;12.27;;;;;;;;;;5022206;28;25214;-56
2021/07/23 12:44:06;;;;;;;14.07;13.07;;;;;;;;;;5024640;28;24973;-56
2021/07/23 12:46:32;;;;;;;13.90;12.90;;;;;;;;;;5019227;28;24444;-56
2021/07/23 12:49:07;;;;;;;12.20;11.20;;;;;;;;;;5020522;28;24506;-56
2021/07/23 12:51:32;;;;;;;14.10;12.80;;;;;;;;;;5026351;28;24408;-56
2021/07/23 12:53:57;;;;;;;13.70;12.60;;;;;;;;;;5023774;28;24426;-56
2021/07/23 12:56:29;;;;;;;13.80;12.70;;;;;;;;;;5025394;28;25073;-56
2021/07/23 12:58:56;;;;;;;13.60;12.60;;;;;;;;;;5012902;28;24707;-55
2021/07/23 13:01:21;;;;;;;12.80;11.90;;;;;;;;;;5022692;28;24886;-56
2021/07/23 13:03:46;;;;;;;13.27;12.17;;;;;;;;;;5024990;28;24514;-56
2021/07/23 13:06:16;;;;;;;13.30;12.23;;;;;;;;;;5019165;28;24503;-56
2021/07/23 13:08:42;;;;;;;13.80;12.70;;;;;;;;;;5034416;28;24832;-55
2021/07/23 13:11:08;;;;;;;14.20;13.20;;;;;;;;;;5037829;28;24423;-55
2021/07/23 13:13:34;;;;;;;14.55;13.35;;;;;;;;;;5021873;28;24518;-55
2021/07/23 13:15:59;;;;;;;14.40;13.30;;;;;;;;;;5010056;28;24506;-55
2021/07/23 13:18:24;;;;;;;12.60;11.70;;;;;;;;;;5021501;28;24486;-55
2021/07/23 13:20:49;;;;;;;13.27;12.18;;;;;;;;;;5010368;28;25178;-55
2021/07/23 13:23:15;;;;;;;13.50;12.40;;;;;;;;;;5020049;28;24519;-55
2021/07/23 13:25:41;;;;;;;13.37;12.37;;;;;;;;;;5021593;28;24420;-54
2021/07/23 13:28:06;;;;;;;14.45;13.35;;;;;;;;;;5021017;28;24403;-55
2021/07/23 13:30:31;;;;;;;14.60;13.50;;;;;;;;;;5046186;28;24406;-54
2021/07/23 13:32:56;;;;;;;14.10;13.10;;;;;;;;;;5027726;28;25004;-55
2021/07/23 13:35:21;;;;;;;13.90;12.70;;;;;;;;;;5019741;28;24431;-55
2021/07/23 13:37:50;;;;;;;14.73;13.63;;;;;;;;;;5006570;28;24407;-55
2021/07/23 13:40:15;;;;;;;13.70;12.70;;;;;;;;;;5006311;28;24471;-55
2021/07/23 13:42:47;;;;;;;14.18;13.07;;;;;;;;;;5008929;28;24432;-55
2021/07/23 13:45:18;;;;;;;13.50;12.40;;;;;;;;;;5023055;28;24418;-55
2021/07/23 13:47:43;;;;;;;13.98;12.88;;;;;;;;;;5025383;28;24482;-54
2021/07/23 13:50:09;;;;;;;14.70;13.60;;;;;;;;;;5025597;28;24384;-54
2021/07/23 13:52:35;;;;;;;14.55;13.38;;;;;;;;;;5025400;28;24433;-55
2021/07/23 13:55:00;;;;;;;14.37;13.27;;;;;;;;;;5025216;28;24420;-54
2021/07/23 13:57:26;;;;;;;13.65;12.60;;;;;;;;;;5025273;28;24407;-55
2021/07/23 13:59:52;;;;;;;14.50;13.30;;;;;;;;;;5026049;28;24402;-55
2021/07/23 14:02:17;;;;;;;13.82;12.73;;;;;;;;;;5009795;28;24670;-55
2021/07/23 14:04:47;;;;;;;13.70;12.70;;;;;;;;;;5011630;28;24432;-54
2021/07/23 14:07:12;;;;;;;14.40;13.30;;;;;;;;;;5025344;28;24956;-55
2021/07/23 14:09:37;;;;;;;14.35;13.25;;;;;;;;;;5015788;28;24432;-55